Time;durP1;ratioP1;P1;durP2;ratioP2;P2;SDS_P1;SDS_P2;PMS_P1;PMS_P2;Temp;Humidity;BMP_temperature;BMP_pressure;BME280_temperature;BME280_humidity;BME280_pressure;Samples;Min_cycle;Max_cycle;Signal;HPM_P1;HPM_P2
2023/10/07 00:00:49;;;;;;;3.00;0.93;;;10.90;99.90;;;;;;5096765;28;20493;-85
2023/10/07 00:03:18;;;;;;;2.70;1.10;;;10.90;99.90;;;;;;5096317;28;20468;-86
2023/10/07 00:05:47;;;;;;;4.70;1.57;;;10.90;99.90;;;;;;5097367;28;20828;-85
2023/10/07 00:08:16;;;;;;;3.80;1.37;;;10.90;99.90;;;;;;5096199;28;20443;-84
2023/10/07 00:10:46;;;;;;;0.70;0.70;;;10.90;99.90;;;;;;5096535;28;20524;-85
2023/10/07 00:13:15;;;;;;;2.40;1.10;;;10.90;99.90;;;;;;5096392;28;20495;-85
2023/10/07 00:15:43;;;;;;;1.90;0.80;;;10.90;99.90;;;;;;5096287;28;20539;-85
2023/10/07 00:18:12;;;;;;;1.23;0.80;;;10.90;99.90;;;;;;5096229;28;20488;-85
2023/10/07 00:20:42;;;;;;;1.13;0.80;;;11.60;99.90;;;;;;5096530;28;20853;-85
2023/10/07 00:23:11;;;;;;;3.67;1.10;;;11.00;99.90;;;;;;5095651;28;20507;-85
2023/10/07 00:25:39;;;;;;;1.40;0.90;;;11.00;99.90;;;;;;5096109;28;20447;-85
2023/10/07 00:28:17;;;;;;;7.80;1.40;;;11.00;99.90;;;;;;5096045;28;20493;-85
2023/10/07 00:30:45;;;;;;;2.43;1.20;;;11.00;99.90;;;;;;5096343;28;20431;-85
2023/10/07 00:33:13;;;;;;;1.27;1.10;;;10.90;99.90;;;;;;5095975;28;20476;-85
2023/10/07 00:35:41;;;;;;;3.10;0.90;;;10.90;99.90;;;;;;5095883;28;20849;-86
2023/10/07 00:38:14;;;;;;;2.00;1.00;;;10.90;99.90;;;;;;5095873;28;20480;-85
2023/10/07 00:40:46;;;;;;;3.53;1.53;;;10.90;99.90;;;;;;5095718;28;20435;-85
2023/10/07 00:43:25;;;;;;;1.43;1.33;;;10.80;99.90;;;;;;5095322;28;20463;-85
2023/10/07 00:45:56;;;;;;;2.80;1.47;;;10.80;99.90;;;;;;5096254;28;20515;-85
2023/10/07 00:48:38;;;;;;;1.70;0.90;;;10.80;99.90;;;;;;5095541;28;20528;-85
2023/10/07 00:51:11;;;;;;;1.70;1.00;;;10.70;99.90;;;;;;5095811;28;20428;-85
2023/10/07 00:53:45;;;;;;;1.97;1.00;;;10.70;99.90;;;;;;5095266;28;20471;-85
2023/10/07 00:56:13;;;;;;;3.47;1.30;;;10.60;99.90;;;;;;5095112;28;20432;-84
2023/10/07 00:58:45;;;;;;;2.53;1.13;;;10.60;99.90;;;;;;5094907;28;20494;-85
2023/10/07 01:01:12;;;;;;;3.80;1.50;;;10.60;99.90;;;;;;5095145;28;20416;-85
2023/10/07 01:03:48;;;;;;;1.47;1.10;;;10.40;99.90;;;;;;5095147;28;20464;-85
2023/10/07 01:06:25;;;;;;;3.50;1.07;;;10.40;99.90;;;;;;5095141;28;20432;-85
2023/10/07 01:08:58;;;;;;;5.67;1.00;;;10.40;99.90;;;;;;5095047;28;20424;-85
2023/10/07 01:11:29;;;;;;;3.57;1.37;;;10.30;99.90;;;;;;5094735;28;20956;-85
2023/10/07 01:13:57;;;;;;;4.10;1.07;;;10.30;99.90;;;;;;5094859;28;20499;-84
2023/10/07 01:16:40;;;;;;;1.00;0.70;;;11.10;99.90;;;;;;5094479;28;20907;-85
2023/10/07 01:19:19;;;;;;;2.00;0.83;;;10.30;99.90;;;;;;5094380;28;21047;-85
2023/10/07 01:21:53;;;;;;;1.17;0.60;;;10.30;99.90;;;;;;5094896;28;20432;-85
2023/10/07 01:24:33;;;;;;;2.23;1.07;;;10.30;99.90;;;;;;5095056;28;20423;-85
2023/10/07 01:27:05;;;;;;;3.03;1.17;;;10.30;99.90;;;;;;5095161;28;20462;-85
2023/10/07 01:29:34;;;;;;;2.10;1.07;;;10.20;99.90;;;;;;5095126;28;20427;-86
2023/10/07 01:32:04;;;;;;;1.37;0.93;;;10.20;99.90;;;;;;5094902;28;20968;-85
2023/10/07 01:34:35;;;;;;;2.83;1.17;;;10.20;99.90;;;;;;5095191;28;20452;-85
2023/10/07 01:37:02;;;;;;;2.67;1.10;;;10.20;99.90;;;;;;5096083;28;20519;-86
2023/10/07 01:39:39;;;;;;;3.13;0.80;;;10.30;99.90;;;;;;5094985;28;20486;-85
2023/10/07 01:42:06;;;;;;;13.23;1.50;;;10.20;99.90;;;;;;5094652;28;20525;-85
2023/10/07 01:44:38;;;;;;;2.43;0.90;;;10.20;99.90;;;;;;5094548;28;20447;-85
2023/10/07 01:47:06;;;;;;;2.20;1.10;;;10.20;99.90;;;;;;5094532;28;20428;-85
2023/10/07 01:49:33;;;;;;;3.83;2.00;;;10.20;99.90;;;;;;5094693;28;20530;-85
2023/10/07 01:52:03;;;;;;;3.20;0.80;;;10.20;99.90;;;;;;5094324;28;20452;-84
2023/10/07 01:54:33;;;;;;;0.93;0.50;;;10.30;99.90;;;;;;5094490;28;20497;-84
2023/10/07 01:57:04;;;;;;;5.30;2.03;;;10.30;99.90;;;;;;5094439;28;20444;-85
2023/10/07 01:59:31;;;;;;;1.43;1.00;;;10.40;99.90;;;;;;5094156;28;20503;-85
2023/10/07 02:02:05;;;;;;;2.40;0.90;;;10.40;99.90;;;;;;5093817;28;20443;-85
2023/10/07 02:04:32;;;;;;;1.77;0.90;;;10.40;99.90;;;;;;5094190;28;20432;-85
2023/10/07 02:07:00;;;;;;;4.37;1.57;;;10.50;99.90;;;;;;5094013;28;20480;-85
2023/10/07 02:09:28;;;;;;;2.83;1.37;;;11.00;99.90;;;;;;5093896;28;20791;-85
2023/10/07 02:11:57;;;;;;;7.40;1.07;;;10.60;99.90;;;;;;5093780;28;20556;-86
2023/10/07 02:14:25;;;;;;;0.80;0.80;;;10.70;99.90;;;;;;5093708;28;20447;-85
2023/10/07 02:16:53;;;;;;;1.00;0.90;;;10.60;99.90;;;;;;5093859;28;20476;-85
2023/10/07 02:19:29;;;;;;;2.73;0.90;;;10.70;99.90;;;;;;5093333;28;20483;-85
2023/10/07 02:22:03;;;;;;;1.23;1.13;;;10.70;99.90;;;;;;5094074;28;20451;-85
2023/10/07 02:24:31;;;;;;;3.33;1.23;;;10.60;99.90;;;;;;5093689;28;20460;-85
2023/10/07 02:27:03;;;;;;;3.87;1.57;;;10.60;99.90;;;;;;5094054;28;20451;-85
2023/10/07 02:29:30;;;;;;;3.53;1.20;;;10.40;99.90;;;;;;5093624;28;20515;-85
2023/10/07 02:32:07;;;;;;;1.87;1.03;;;10.30;99.90;;;;;;5093455;28;20455;-85
2023/10/07 02:34:34;;;;;;;16.27;0.97;;;10.20;99.90;;;;;;5093743;28;20498;-84
2023/10/07 02:37:14;;;;;;;1.03;0.83;;;10.50;99.90;;;;;;5093691;28;20443;-84
2023/10/07 02:39:46;;;;;;;6.03;1.17;;;10.10;99.90;;;;;;5098060;28;20532;-84
2023/10/07 02:42:21;;;;;;;2.53;1.17;;;9.90;99.90;;;;;;5097752;28;20487;-85
2023/10/07 02:44:51;;;;;;;2.97;1.00;;;9.90;99.90;;;;;;5097455;28;20993;-85
2023/10/07 02:47:19;;;;;;;1.37;1.10;;;9.80;99.90;;;;;;5098970;28;20443;-85
2023/10/07 02:49:49;;;;;;;4.07;1.20;;;9.80;99.90;;;;;;5097859;28;20525;-84
2023/10/07 02:52:19;;;;;;;1.03;0.83;;;9.80;99.90;;;;;;5097534;28;20479;-85
2023/10/07 02:55:05;;;;;;;1.47;1.27;;;9.80;99.90;;;;;;5097756;28;20505;-85
2023/10/07 02:57:39;;;;;;;2.70;1.10;;;9.80;99.90;;;;;;5097700;28;20451;-85
2023/10/07 03:00:28;;;;;;;3.63;1.33;;;9.80;99.90;;;;;;5097325;28;20436;-85
2023/10/07 03:03:10;;;;;;;1.43;1.10;;;9.70;99.90;;;;;;5097240;28;20464;-85
2023/10/07 03:05:43;;;;;;;1.13;1.00;;;9.80;99.90;;;;;;5098035;28;20443;-85
2023/10/07 03:08:19;;;;;;;1.60;0.90;;;9.70;99.90;;;;;;5097404;28;20424;-85
2023/10/07 03:10:54;;;;;;;3.17;1.10;;;9.70;99.90;;;;;;5097238;28;20516;-86
2023/10/07 03:13:24;;;;;;;2.00;1.00;;;9.70;99.90;;;;;;5097192;28;20513;-85
2023/10/07 03:18:31;;;;;;;1.73;1.33;;;9.60;99.90;;;;;;5096843;28;20562;-85
2023/10/07 03:21:06;;;;;;;4.90;1.67;;;9.60;99.90;;;;;;5097072;28;20823;-85
2023/10/07 03:23:36;;;;;;;1.60;1.10;;;9.60;99.90;;;;;;5097319;28;20455;-85
2023/10/07 03:26:09;;;;;;;2.47;0.70;;;9.60;99.90;;;;;;5096951;28;20451;-85
2023/10/07 03:28:47;;;;;;;3.30;1.20;;;9.60;99.90;;;;;;5096858;28;20431;-85
2023/10/07 03:31:18;;;;;;;11.17;1.83;;;9.50;99.90;;;;;;5105863;28;20436;-85
2023/10/07 03:33:46;;;;;;;4.90;1.07;;;9.50;99.90;;;;;;5097395;28;20499;-85
2023/10/07 03:39:10;;;;;;;0.93;0.83;;;9.50;99.90;;;;;;5096219;28;20479;-85
2023/10/07 03:41:37;;;;;;;2.77;1.83;;;9.50;99.90;;;;;;5096574;28;20479;-85
2023/10/07 03:44:05;;;;;;;6.33;1.43;;;9.50;99.90;;;;;;5096242;28;20995;-85
2023/10/07 03:46:34;;;;;;;1.53;1.47;;;9.50;99.90;;;;;;5096518;28;20451;-85
2023/10/07 03:49:01;;;;;;;2.73;0.97;;;9.50;99.90;;;;;;5095786;28;20960;-86
2023/10/07 03:51:30;;;;;;;1.93;0.90;;;9.60;99.90;;;;;;5096460;28;20444;-85
2023/10/07 03:54:00;;;;;;;1.90;1.37;;;9.60;99.90;;;;;;5096094;28;20968;-84
2023/10/07 03:56:27;;;;;;;2.90;1.07;;;9.70;99.90;;;;;;5096520;28;20444;-86
2023/10/07 03:58:55;;;;;;;4.03;0.97;;;9.70;99.90;;;;;;5096558;28;20483;-86
2023/10/07 04:01:26;;;;;;;2.27;1.07;;;9.70;99.90;;;;;;5096478;28;20933;-85
2023/10/07 04:03:59;;;;;;;1.37;1.27;;;9.70;99.90;;;;;;5096309;28;20499;-85
2023/10/07 04:06:30;;;;;;;3.47;2.00;;;9.70;99.90;;;;;;5096259;28;20810;-85
2023/10/07 04:09:05;;;;;;;1.43;1.30;;;9.70;99.90;;;;;;5096229;28;20425;-86
2023/10/07 04:11:33;;;;;;;1.43;0.80;;;9.70;99.90;;;;;;5095973;28;20444;-86
2023/10/07 04:14:06;;;;;;;1.60;1.23;;;9.60;99.90;;;;;;5095996;28;20503;-85
2023/10/07 04:16:36;;;;;;;2.30;1.37;;;9.60;99.90;;;;;;5096262;28;20442;-85
2023/10/07 04:19:30;;;;;;;2.20;1.33;;;9.60;99.90;;;;;;5095969;28;20871;-85
2023/10/07 04:21:58;;;;;;;3.07;1.80;;;9.60;99.90;;;;;;5095497;28;20527;-85
2023/10/07 04:24:28;;;;;;;2.27;1.20;;;9.50;99.90;;;;;;5095914;28;20494;-85
2023/10/07 04:27:02;;;;;;;5.10;1.00;;;9.50;99.90;;;;;;5096111;28;20437;-85
2023/10/07 04:29:30;;;;;;;3.03;0.87;;;9.50;99.90;;;;;;5095959;28;20428;-85
2023/10/07 04:32:05;;;;;;;0.80;0.70;;;9.40;99.90;;;;;;5095487;28;20448;-86
2023/10/07 04:34:48;;;;;;;1.37;0.70;;;9.40;99.90;;;;;;5095969;28;20428;-85
2023/10/07 04:37:18;;;;;;;1.13;1.07;;;10.50;99.90;;;;;;5095646;28;20947;-86
2023/10/07 04:42:38;;;;;;;5.50;1.47;;;9.40;99.90;;;;;;5095359;28;20483;-85
2023/10/07 04:48:01;;;;;;;2.73;1.10;;;9.30;99.90;;;;;;5091714;28;20517;-85
2023/10/07 04:50:33;;;;;;;2.53;1.03;;;9.30;99.90;;;;;;5095403;28;20859;-85
2023/10/07 04:53:03;;;;;;;2.37;0.90;;;9.30;99.90;;;;;;5095218;28;20474;-85
2023/10/07 04:55:30;;;;;;;1.07;0.97;;;9.30;99.90;;;;;;5095317;28;20543;-85
2023/10/07 04:57:59;;;;;;;1.17;0.70;;;9.40;99.90;;;;;;5095167;28;20810;-86
2023/10/07 05:00:35;;;;;;;1.33;1.20;;;9.50;99.90;;;;;;5094304;28;20499;-85
2023/10/07 05:03:14;;;;;;;4.10;1.00;;;9.50;99.90;;;;;;5095343;28;20463;-85
2023/10/07 05:05:43;;;;;;;7.30;1.93;;;9.50;99.90;;;;;;5094884;28;20970;-86
2023/10/07 05:08:11;;;;;;;2.47;0.97;;;9.60;99.90;;;;;;5094694;28;20474;-85
2023/10/07 05:10:39;;;;;;;2.07;1.37;;;9.50;99.90;;;;;;5094599;28;20539;-85
2023/10/07 05:13:07;;;;;;;1.00;0.90;;;9.50;99.90;;;;;;5095061;28;20497;-85
2023/10/07 05:15:33;;;;;;;2.60;1.00;;;9.60;99.90;;;;;;5094928;28;20822;-85
2023/10/07 05:18:03;;;;;;;1.53;1.30;;;9.70;99.90;;;;;;5094836;28;20456;-86
2023/10/07 05:20:32;;;;;;;5.07;1.60;;;9.60;99.90;;;;;;5094644;28;20472;-85
2023/10/07 05:23:02;;;;;;;1.47;1.00;;;9.60;99.90;;;;;;5094567;28;20464;-86
2023/10/07 05:25:29;;;;;;;0.67;0.67;;;9.60;99.90;;;;;;5094362;28;20936;-85
2023/10/07 05:27:56;;;;;;;2.93;1.33;;;9.70;99.90;;;;;;5094574;28;20829;-85
2023/10/07 05:30:23;;;;;;;3.90;1.07;;;9.60;99.90;;;;;;5094224;28;20924;-85
2023/10/07 05:32:50;;;;;;;0.70;0.50;;;9.60;99.90;;;;;;5094285;28;21039;-86
2023/10/07 05:35:18;;;;;;;0.80;0.80;;;9.50;99.90;;;;;;5094599;28;20451;-85
2023/10/07 05:37:45;;;;;;;1.80;0.93;;;9.50;99.90;;;;;;5094232;28;20940;-85
2023/10/07 05:40:16;;;;;;;5.60;1.30;;;10.20;99.90;;;;;;5094509;28;20491;-85
2023/10/07 05:42:43;;;;;;;3.10;1.13;;;9.50;99.90;;;;;;5093870;28;21061;-86
2023/10/07 05:45:11;;;;;;;1.37;1.37;;;9.50;99.90;;;;;;5094107;28;20434;-85
2023/10/07 05:47:37;;;;;;;4.97;1.53;;;9.40;99.90;;;;;;5093957;28;20447;-85
2023/10/07 05:50:08;;;;;;;1.10;1.10;;;9.50;99.90;;;;;;5093924;28;20992;-85
2023/10/07 05:52:36;;;;;;;2.27;2.07;;;9.40;99.90;;;;;;5093737;28;21042;-85
2023/10/07 05:55:03;;;;;;;3.00;1.10;;;9.40;99.90;;;;;;5094120;28;20448;-85
2023/10/07 05:57:30;;;;;;;1.80;0.80;;;9.40;99.90;;;;;;5093922;28;20535;-85
2023/10/07 05:59:58;;;;;;;2.43;1.13;;;9.50;99.90;;;;;;5094002;28;20483;-85
2023/10/07 06:02:26;;;;;;;1.30;1.10;;;9.50;99.90;;;;;;5094190;28;20464;-86
2023/10/07 06:04:52;;;;;;;1.63;1.10;;;9.60;99.90;;;;;;5094156;28;20501;-85
2023/10/07 06:07:21;;;;;;;4.37;1.30;;;9.70;99.90;;;;;;5093737;28;20432;-85
2023/10/07 06:09:49;;;;;;;2.40;1.20;;;9.70;99.90;;;;;;5094064;28;20428;-85
2023/10/07 06:12:18;;;;;;;6.03;1.53;;;9.70;99.90;;;;;;5093533;28;20464;-85
2023/10/07 06:14:44;;;;;;;2.50;0.80;;;9.80;99.90;;;;;;5093854;28;20484;-85
2023/10/07 06:17:11;;;;;;;1.40;0.83;;;9.80;99.90;;;;;;5093780;28;20774;-85
2023/10/07 06:19:40;;;;;;;5.70;1.03;;;9.80;99.90;;;;;;5093803;28;20476;-85
2023/10/07 06:22:12;;;;;;;1.27;0.90;;;9.90;99.90;;;;;;5094367;28;20452;-85
2023/10/07 06:24:41;;;;;;;1.43;1.00;;;11.10;99.90;;;;;;5093995;28;20427;-85
2023/10/07 06:27:12;;;;;;;3.33;1.37;;;11.20;99.90;;;;;;5093399;28;20444;-86
2023/10/07 06:29:43;;;;;;;0.60;0.60;;;10.00;99.90;;;;;;5093554;28;20424;-85
2023/10/07 06:32:23;;;;;;;1.37;1.27;;;10.60;99.90;;;;;;5093234;28;20985;-85
2023/10/07 06:34:51;;;;;;;1.40;1.07;;;10.10;99.90;;;;;;5093387;28;20433;-85
2023/10/07 06:37:26;;;;;;;0.80;0.60;;;10.90;99.90;;;;;;5093373;28;20450;-84
2023/10/07 06:39:52;;;;;;;4.53;3.20;;;10.30;99.90;;;;;;5094045;28;20499;-85
2023/10/07 06:42:24;;;;;;;1.37;1.20;;;10.30;99.90;;;;;;5092840;28;21006;-84
2023/10/07 06:44:53;;;;;;;3.20;1.40;;;10.40;99.90;;;;;;5093435;28;20481;-84
2023/10/07 06:47:21;;;;;;;0.70;0.70;;;10.50;99.90;;;;;;5093588;28;20456;-84
2023/10/07 06:49:48;;;;;;;2.90;1.17;;;10.50;99.90;;;;;;5093234;28;20436;-84
2023/10/07 06:52:16;;;;;;;3.70;1.33;;;10.50;99.90;;;;;;5093846;28;20547;-84
2023/10/07 06:54:42;;;;;;;2.30;1.23;;;10.70;99.90;;;;;;5093125;28;20432;-84
2023/10/07 06:57:10;;;;;;;0.97;0.97;;;10.90;99.90;;;;;;5093124;28;20815;-84
2023/10/07 06:59:40;;;;;;;1.37;0.90;;;11.10;99.90;;;;;;5093160;28;20475;-84
2023/10/07 07:02:06;;;;;;;2.50;1.23;;;11.30;99.90;;;;;;5092763;28;20543;-85
2023/10/07 07:04:35;;;;;;;2.20;2.00;;;11.50;99.90;;;;;;5093113;28;20448;-85
2023/10/07 07:07:11;;;;;;;3.83;1.33;;;11.70;99.90;;;;;;5093079;28;20450;-84
2023/10/07 07:09:58;;;;;;;1.67;1.00;;;11.70;99.90;;;;;;5093303;28;20466;-84
2023/10/07 07:12:26;;;;;;;4.30;1.20;;;12.20;99.90;;;;;;5093034;28;20477;-84
2023/10/07 07:14:59;;;;;;;1.57;1.23;;;11.80;99.90;;;;;;5092978;28;20448;-85
2023/10/07 07:17:36;;;;;;;7.70;1.73;;;11.80;99.90;;;;;;5093269;28;20428;-84
2023/10/07 07:20:33;;;;;;;4.53;2.13;;;11.90;99.90;;;;;;5092988;28;20463;-85
2023/10/07 07:23:03;;;;;;;2.43;1.60;;;11.90;99.90;;;;;;5093704;28;20517;-85
2023/10/07 07:25:39;;;;;;;1.27;0.90;;;12.00;99.90;;;;;;5097060;28;20846;-85
2023/10/07 07:28:09;;;;;;;1.00;1.00;;;11.90;99.90;;;;;;5096981;28;20431;-85
2023/10/07 07:30:37;;;;;;;4.27;2.03;;;11.90;99.90;;;;;;5096790;28;20487;-85
2023/10/07 07:33:08;;;;;;;3.30;0.77;;;12.00;99.90;;;;;;5096673;28;20468;-85
2023/10/07 07:35:43;;;;;;;1.70;1.43;;;12.10;99.90;;;;;;5096555;28;20956;-85
2023/10/07 07:38:26;;;;;;;2.23;1.37;;;12.20;99.90;;;;;;5096527;28;20435;-85
2023/10/07 07:41:04;;;;;;;3.20;1.13;;;12.40;99.90;;;;;;5096481;28;20504;-84
2023/10/07 07:43:31;;;;;;;3.50;1.33;;;12.70;99.90;;;;;;5096127;28;20512;-85
2023/10/07 07:46:15;;;;;;;3.93;1.07;;;13.00;99.90;;;;;;5095970;28;20949;-85
2023/10/07 07:48:43;;;;;;;2.33;1.03;;;13.10;99.90;;;;;;5096664;28;20432;-84
2023/10/07 07:51:11;;;;;;;0.93;0.83;;;13.20;99.90;;;;;;5096266;28;20531;-84
2023/10/07 07:53:39;;;;;;;3.83;1.30;;;13.20;99.90;;;;;;5096413;28;20479;-84
2023/10/07 07:56:08;;;;;;;4.40;2.40;;;13.30;99.90;;;;;;5096487;28;20546;-84
2023/10/07 07:58:37;;;;;;;1.17;0.93;;;13.40;99.90;;;;;;5095920;28;20798;-85
2023/10/07 08:01:06;;;;;;;1.63;1.53;;;13.60;99.90;;;;;;5096154;28;20530;-84
2023/10/07 08:03:37;;;;;;;1.17;1.00;;;13.70;99.90;;;;;;5096145;28;20465;-84
2023/10/07 08:06:06;;;;;;;1.30;1.07;;;13.80;99.90;;;;;;5096065;28;20515;-84
2023/10/07 08:08:36;;;;;;;2.43;1.40;;;13.90;99.90;;;;;;5095786;28;20454;-84
2023/10/07 08:11:05;;;;;;;4.73;1.50;;;14.20;99.90;;;;;;5096051;28;20421;-84
2023/10/07 08:13:32;;;;;;;1.70;1.40;;;14.40;99.90;;;;;;5095527;28;20511;-84
2023/10/07 08:16:05;;;;;;;1.63;1.00;;;14.60;99.90;;;;;;5095865;28;20452;-84
2023/10/07 08:18:33;;;;;;;3.03;1.33;;;14.70;99.90;;;;;;5095984;28;20434;-86
2023/10/07 08:21:07;;;;;;;1.23;0.90;;;14.90;99.90;;;;;;5095665;28;21000;-85
2023/10/07 08:23:37;;;;;;;1.23;1.00;;;15.00;99.90;;;;;;5095331;28;20463;-84
2023/10/07 08:26:10;;;;;;;7.20;1.07;;;15.00;99.90;;;;;;5095683;28;20475;-85
2023/10/07 08:28:45;;;;;;;3.00;0.90;;;14.90;99.90;;;;;;5095923;28;20467;-84
2023/10/07 08:31:18;;;;;;;4.10;1.03;;;14.90;99.90;;;;;;5095568;28;20463;-84
2023/10/07 08:33:53;;;;;;;2.20;0.90;;;15.00;99.90;;;;;;5095485;28;20456;-85
2023/10/07 08:36:27;;;;;;;2.70;1.27;;;15.10;99.90;;;;;;5094542;28;20427;-85
2023/10/07 08:38:56;;;;;;;3.67;1.37;;;15.20;99.90;;;;;;5095432;28;20436;-85
2023/10/07 08:41:26;;;;;;;1.43;0.87;;;15.30;99.90;;;;;;5095020;28;20581;-84
2023/10/07 08:44:04;;;;;;;2.00;1.20;;;15.40;99.90;;;;;;5095254;28;20588;-84
2023/10/07 08:46:37;;;;;;;4.33;1.00;;;15.40;99.90;;;;;;5095029;28;20436;-85
2023/10/07 08:49:10;;;;;;;1.50;1.20;;;15.60;99.90;;;;;;5095548;28;20433;-84
2023/10/07 08:51:41;;;;;;;3.07;1.13;;;15.60;99.90;;;;;;5095221;28;20841;-84
2023/10/07 08:54:10;;;;;;;1.20;0.60;;;15.90;99.90;;;;;;5094981;28;20456;-85
2023/10/07 08:56:40;;;;;;;5.13;1.00;;;16.00;99.90;;;;;;5095148;28;20444;-85
2023/10/07 08:59:07;;;;;;;0.90;0.63;;;16.10;99.90;;;;;;5095254;28;20444;-85
2023/10/07 09:01:35;;;;;;;1.63;1.27;;;16.40;99.90;;;;;;5094998;28;20479;-84
2023/10/07 09:04:07;;;;;;;2.40;1.53;;;17.10;99.90;;;;;;5094813;28;20497;-84
2023/10/07 09:06:37;;;;;;;2.20;0.93;;;17.70;99.90;;;;;;5094991;28;20428;-84
2023/10/07 09:09:06;;;;;;;3.50;1.50;;;18.50;99.90;;;;;;5094626;28;20444;-84
2023/10/07 09:11:36;;;;;;;4.30;0.80;;;19.10;99.90;;;;;;5094762;28;20568;-84
2023/10/07 09:14:07;;;;;;;1.80;0.93;;;19.70;99.90;;;;;;5094678;28;20463;-84
2023/10/07 09:16:34;;;;;;;1.80;1.10;;;19.80;99.90;;;;;;5094428;28;20905;-84
2023/10/07 09:19:10;;;;;;;3.80;1.37;;;19.60;99.90;;;;;;5094659;28;20459;-84
2023/10/07 09:21:39;;;;;;;1.13;0.80;;;19.50;99.90;;;;;;5094233;28;20464;-84
2023/10/07 09:24:13;;;;;;;3.63;1.40;;;19.20;99.90;;;;;;5094337;28;20456;-84
2023/10/07 09:26:56;;;;;;;1.73;0.80;;;18.80;99.90;;;;;;5094492;28;20424;-84
2023/10/07 09:29:25;;;;;;;3.70;1.10;;;18.50;99.90;;;;;;5094439;28;20442;-84
2023/10/07 09:31:59;;;;;;;7.87;1.53;;;18.40;99.90;;;;;;5094246;28;20451;-83
2023/10/07 09:34:41;;;;;;;1.33;0.90;;;18.30;99.90;;;;;;5094551;28;20433;-84
2023/10/07 09:37:12;;;;;;;6.30;1.10;;;18.30;99.90;;;;;;5094429;28;20436;-84
2023/10/07 09:39:45;;;;;;;1.63;1.20;;;18.20;99.90;;;;;;5093884;28;20435;-84
2023/10/07 09:42:26;;;;;;;1.10;0.80;;;18.10;99.90;;;;;;5093586;28;20979;-83
2023/10/07 09:44:56;;;;;;;2.87;1.00;;;18.00;99.90;;;;;;5094161;28;20420;-84
2023/10/07 09:47:24;;;;;;;2.80;1.43;;;17.80;99.90;;;;;;5093700;28;20431;-83
2023/10/07 09:49:57;;;;;;;3.90;1.40;;;17.60;99.90;;;;;;5094252;28;20420;-84
2023/10/07 09:52:29;;;;;;;3.80;1.13;;;17.50;99.90;;;;;;5094353;28;20464;-82
2023/10/07 09:55:23;;;;;;;1.67;1.27;;;17.60;99.90;;;;;;5093980;28;20416;-83
2023/10/07 09:58:01;;;;;;;2.77;0.90;;;17.50;99.90;;;;;;5093821;28;20432;-83
2023/10/07 10:00:40;;;;;;;2.30;0.77;;;17.60;99.90;;;;;;5093401;28;20472;-83
2023/10/07 10:03:34;;;;;;;1.47;0.80;;;17.60;99.90;;;;;;5093468;28;20837;-83
2023/10/07 10:06:16;;;;;;;2.80;0.80;;;17.70;99.90;;;;;;5093697;28;20438;-82
2023/10/07 10:08:57;;;;;;;1.10;1.00;;;17.60;99.90;;;;;;5093653;28;20428;-83
2023/10/07 10:11:31;;;;;;;1.77;1.00;;;17.70;99.90;;;;;;5093694;28;20424;-82
2023/10/07 10:14:16;;;;;;;3.80;1.17;;;17.70;99.90;;;;;;5093574;28;20472;-83
2023/10/07 10:16:45;;;;;;;2.33;1.00;;;17.90;99.90;;;;;;5093562;28;20435;-83
2023/10/07 10:19:19;;;;;;;3.50;1.50;;;18.00;99.90;;;;;;5093517;28;20501;-83
2023/10/07 10:21:46;;;;;;;1.90;1.00;;;18.00;99.90;;;;;;5093575;28;20568;-84
2023/10/07 10:24:18;;;;;;;3.80;1.33;;;18.20;99.90;;;;;;5093134;28;20448;-85
2023/10/07 10:26:45;;;;;;;2.83;0.87;;;18.50;99.90;;;;;;5093441;28;20452;-84
2023/10/07 10:29:17;;;;;;;1.33;0.90;;;18.60;99.90;;;;;;5093429;28;20447;-85
2023/10/07 10:31:51;;;;;;;1.70;1.13;;;18.80;99.90;;;;;;5093430;28;20435;-85
2023/10/07 10:34:20;;;;;;;2.20;0.70;;;18.70;99.90;;;;;;5093319;28;20444;-85
2023/10/07 10:36:49;;;;;;;1.63;0.90;;;18.70;99.90;;;;;;5093331;28;20448;-84
2023/10/07 10:39:22;;;;;;;1.20;0.70;;;18.60;99.90;;;;;;5092970;28;20497;-85
2023/10/07 10:41:49;;;;;;;1.53;1.07;;;18.60;99.90;;;;;;5092928;28;20492;-85
2023/10/07 10:44:17;;;;;;;2.97;0.87;;;18.40;99.90;;;;;;5093464;28;20451;-84
2023/10/07 10:46:46;;;;;;;2.77;0.93;;;18.30;99.90;;;;;;5093330;28;20521;-84
2023/10/07 10:49:15;;;;;;;1.83;1.17;;;18.20;99.90;;;;;;5093303;28;20817;-85
2023/10/07 10:51:45;;;;;;;2.50;1.57;;;18.10;99.90;;;;;;5093244;28;20472;-84
2023/10/07 10:54:18;;;;;;;1.30;0.90;;;18.10;99.90;;;;;;5093873;28;20541;-85
2023/10/07 10:56:49;;;;;;;5.90;1.20;;;18.10;99.90;;;;;;5094091;28;20444;-85
2023/10/07 10:59:17;;;;;;;4.27;1.20;;;18.00;99.90;;;;;;5096012;28;20445;-84
2023/10/07 11:01:45;;;;;;;1.43;1.33;;;18.00;99.90;;;;;;5097815;28;20490;-85
2023/10/07 11:04:15;;;;;;;3.00;1.13;;;18.00;99.90;;;;;;5097187;28;20517;-86
2023/10/07 11:06:42;;;;;;;1.53;1.13;;;18.00;99.90;;;;;;5097484;28;20454;-84
2023/10/07 11:09:17;;;;;;;1.43;0.80;;;18.10;99.90;;;;;;5097093;28;20451;-85
2023/10/07 11:11:48;;;;;;;1.97;1.07;;;18.20;99.90;;;;;;5097438;28;20428;-84
2023/10/07 11:14:20;;;;;;;2.07;0.60;;;18.60;99.90;;;;;;5097189;28;20531;-85
2023/10/07 11:16:47;;;;;;;0.93;0.90;;;18.50;99.90;;;;;;5097122;28;20432;-85
2023/10/07 11:19:15;;;;;;;0.70;0.70;;;18.50;99.90;;;;;;5096988;28;20474;-85
2023/10/07 11:21:44;;;;;;;1.77;0.97;;;18.60;99.90;;;;;;5096621;28;20842;-84
2023/10/07 11:24:14;;;;;;;2.60;0.83;;;18.70;99.90;;;;;;5096091;28;20475;-85
2023/10/07 11:26:42;;;;;;;2.13;1.40;;;18.70;99.90;;;;;;5095006;28;20447;-86
2023/10/07 11:29:14;;;;;;;2.07;1.30;;;18.70;99.90;;;;;;5095701;28;20475;-85
2023/10/07 11:31:42;;;;;;;1.13;0.90;;;18.80;99.90;;;;;;5096311;28;20493;-85
2023/10/07 11:34:10;;;;;;;2.10;0.90;;;18.70;99.90;;;;;;5096670;28;20968;-84
2023/10/07 11:36:47;;;;;;;1.13;0.90;;;18.80;99.90;;;;;;5096679;28;20448;-85
2023/10/07 11:39:14;;;;;;;1.57;0.80;;;18.80;99.90;;;;;;5096250;28;20427;-86
2023/10/07 11:41:42;;;;;;;1.50;0.90;;;18.80;99.90;;;;;;5096167;28;20495;-85
2023/10/07 11:44:10;;;;;;;3.20;1.10;;;18.90;99.90;;;;;;5096555;28;20472;-85
2023/10/07 11:46:40;;;;;;;2.30;0.90;;;18.80;99.90;;;;;;5096543;28;20530;-86
2023/10/07 11:49:07;;;;;;;0.70;0.70;;;18.70;99.90;;;;;;5097332;28;20443;-86
2023/10/07 11:51:34;;;;;;;2.10;0.90;;;18.70;99.90;;;;;;5096346;28;20451;-86
2023/10/07 11:54:01;;;;;;;1.30;0.80;;;18.60;99.90;;;;;;5096433;28;20522;-86
2023/10/07 11:56:28;;;;;;;1.93;1.00;;;18.70;99.90;;;;;;5096358;28;20436;-86
2023/10/07 11:58:55;;;;;;;1.43;0.80;;;18.60;99.90;;;;;;5096388;28;20451;-86
2023/10/07 12:01:23;;;;;;;1.00;0.57;;;18.60;99.90;;;;;;5095909;28;20486;-86
2023/10/07 12:03:53;;;;;;;4.07;1.00;;;18.50;99.90;;;;;;5096260;28;20468;-86
2023/10/07 12:06:19;;;;;;;2.20;0.90;;;18.60;99.90;;;;;;5096271;28;20505;-86
2023/10/07 12:08:46;;;;;;;1.43;0.90;;;18.70;99.90;;;;;;5095464;28;20936;-86
2023/10/07 12:11:13;;;;;;;0.77;0.77;;;18.70;99.90;;;;;;5096294;28;20448;-84
2023/10/07 12:13:41;;;;;;;1.27;0.80;;;18.80;99.90;;;;;;5095722;28;20458;-85
2023/10/07 12:16:09;;;;;;;4.20;1.00;;;18.80;99.90;;;;;;5095926;28;20443;-85
2023/10/07 12:18:36;;;;;;;1.93;0.90;;;19.00;99.90;;;;;;5095893;28;20512;-85
2023/10/07 12:21:11;;;;;;;2.30;0.80;;;18.90;99.90;;;;;;5095871;28;20556;-85
2023/10/07 12:23:39;;;;;;;2.50;1.20;;;18.90;99.90;;;;;;5096013;28;20550;-85
2023/10/07 12:26:12;;;;;;;1.53;1.00;;;18.90;99.90;;;;;;5091755;28;20493;-85
2023/10/07 12:28:39;;;;;;;3.90;1.17;;;18.80;99.90;;;;;;5081210;28;20535;-85
2023/10/07 12:31:10;;;;;;;1.47;0.80;;;18.90;99.90;;;;;;5087435;28;20854;-85
2023/10/07 12:33:37;;;;;;;0.93;0.90;;;18.80;99.90;;;;;;5088392;28;20510;-85
2023/10/07 12:36:12;;;;;;;2.47;1.13;;;18.80;99.90;;;;;;5088965;28;20940;-85
2023/10/07 12:38:39;;;;;;;2.73;1.27;;;18.80;99.90;;;;;;5077819;28;20459;-85
2023/10/07 12:41:07;;;;;;;0.83;0.60;;;18.90;99.90;;;;;;5095079;28;20487;-84
2023/10/07 12:43:34;;;;;;;1.87;1.07;;;18.90;99.90;;;;;;5095655;28;20464;-84
2023/10/07 12:46:01;;;;;;;1.87;1.13;;;19.00;99.90;;;;;;5095325;28;20439;-85
2023/10/07 12:48:28;;;;;;;1.43;0.80;;;19.10;99.90;;;;;;5095034;28;20427;-85
2023/10/07 12:50:54;;;;;;;1.50;0.97;;;19.10;99.90;;;;;;5095145;28;20960;-84
2023/10/07 12:53:22;;;;;;;1.60;0.90;;;19.20;99.90;;;;;;5095327;28;20474;-85
2023/10/07 12:55:50;;;;;;;1.20;0.70;;;19.30;99.90;;;;;;5095496;28;20462;-85
2023/10/07 12:58:17;;;;;;;1.67;0.93;;;19.20;99.90;;;;;;5095794;28;20497;-85
2023/10/07 13:00:44;;;;;;;3.07;1.10;;;19.40;99.90;;;;;;5095476;28;20535;-86
2023/10/07 13:03:12;;;;;;;2.13;1.00;;;19.40;99.90;;;;;;5095268;28;20463;-85
2023/10/07 13:05:41;;;;;;;2.37;0.90;;;19.40;99.90;;;;;;5094917;28;20808;-85
2023/10/07 13:08:12;;;;;;;2.43;1.00;;;19.30;99.90;;;;;;5095272;28;20439;-85
2023/10/07 13:10:40;;;;;;;1.77;0.97;;;19.30;99.90;;;;;;5095247;28;20964;-85
2023/10/07 13:13:07;;;;;;;1.10;0.70;;;19.30;99.90;;;;;;5094980;28;20455;-85
2023/10/07 13:15:35;;;;;;;1.70;1.07;;;19.40;99.90;;;;;;5094813;28;20455;-85
2023/10/07 13:18:03;;;;;;;2.00;1.10;;;19.30;99.90;;;;;;5094707;28;20452;-85
2023/10/07 13:20:30;;;;;;;1.60;0.93;;;19.30;99.90;;;;;;5093842;28;20459;-84